Time;durP1;ratioP1;P1;durP2;ratioP2;P2;SDS_P1;SDS_P2;PMS_P1;PMS_P2;Temp;Humidity;BMP_temperature;BMP_pressure;BME280_temperature;BME280_humidity;BME280_pressure;Samples;Min_cycle;Max_cycle;Signal;HPM_P1;HPM_P2
2023/04/12 00:01:25;;;;;;;10.10;8.90;;;;;;;10.39;71.25;98989.42;105898;1253;61510;-77
2023/04/12 00:03:53;;;;;;;10.30;9.10;;;;;;;10.35;71.49;98988.67;106240;1257;60530;-77
2023/04/12 00:06:26;;;;;;;9.30;8.00;;;;;;;10.32;71.68;98980.80;106418;1251;73162;-79
2023/04/12 00:08:53;;;;;;;12.20;8.50;;;;;;;10.37;71.43;98980.52;105922;1256;70999;-79
2023/04/12 00:11:21;;;;;;;11.60;9.10;;;;;;;10.42;71.73;98977.64;106142;1251;72858;-79
2023/04/12 00:13:48;;;;;;;10.40;8.70;;;;;;;10.39;72.31;98977.58;106181;1256;60450;-76
2023/04/12 00:16:16;;;;;;;13.70;8.90;;;;;;;10.38;72.73;98978.33;106362;1258;60429;-78
2023/04/12 00:18:45;;;;;;;14.10;9.80;;;;;;;10.36;72.54;98978.52;106451;1257;74722;-80
2023/04/12 00:21:12;;;;;;;15.00;9.30;;;;;;;10.35;72.74;98974.77;106975;1251;69527;-76
2023/04/12 00:23:44;;;;;;;11.20;9.20;;;;;;;10.32;72.54;98972.41;109145;1253;71718;-84
2023/04/12 00:26:12;;;;;;;12.40;8.00;;;;;;;10.32;72.51;98972.08;107378;1257;59250;-80
2023/04/12 00:28:43;;;;;;;15.70;8.80;;;;;;;10.38;72.38;98975.14;106458;1257;60553;-77
2023/04/12 00:31:11;;;;;;;11.70;9.20;;;;;;;10.42;72.72;98973.39;106239;1254;73236;-77
2023/04/12 00:33:39;;;;;;;11.60;9.00;;;;;;;10.38;72.84;98971.59;107393;1255;71379;-77
2023/04/12 00:36:09;;;;;;;11.30;9.20;;;;;;;10.34;73.16;98973.29;107721;1251;70461;-77
2023/04/12 00:38:36;;;;;;;12.10;9.70;;;;;;;10.30;73.79;98974.97;107617;1254;61453;-79
2023/04/12 00:41:03;;;;;;;10.30;8.30;;;;;;;10.28;74.10;98972.54;108294;1256;60496;-76
2023/04/12 00:43:31;;;;;;;11.20;9.60;;;;;;;10.24;73.92;98971.59;109006;1251;72914;-79
2023/04/12 00:45:58;;;;;;;18.70;9.30;;;;;;;10.19;74.32;98967.73;108889;1255;68887;-75
2023/04/12 00:48:29;;;;;;;16.00;8.70;;;;;;;10.24;74.36;98961.34;106339;1257;73741;-77
2023/04/12 00:50:57;;;;;;;16.70;9.80;;;;;;;10.28;74.57;98958.98;105751;1254;60454;-76
2023/04/12 00:53:23;;;;;;;13.60;9.60;;;;;;;10.22;75.19;98958.41;105916;1258;60444;-75
2023/04/12 00:55:53;;;;;;;11.40;8.70;;;;;;;10.16;75.36;98956.17;106026;1258;75063;-75
2023/04/12 00:58:23;;;;;;;14.20;9.90;;;;;;;10.09;75.85;98952.73;106115;1252;71469;-74
2023/04/12 01:00:53;;;;;;;14.60;10.50;;;;;;;10.00;76.13;98951.43;106123;1256;72543;-75
2023/04/12 01:03:22;;;;;;;15.10;9.40;;;;;;;9.92;76.24;98946.19;106262;1254;62558;-79
2023/04/12 01:06:13;;;;;;;12.70;9.00;;;;;;;9.96;76.94;98943.45;106195;1256;61358;-79
2023/04/12 01:08:51;;;;;;;11.90;9.00;;;;;;;9.98;77.34;98943.41;106245;1251;75059;-78
2023/04/12 01:11:42;;;;;;;15.50;10.20;;;;;;;9.91;77.94;98938.41;106415;1265;70083;-78
2023/04/12 01:14:21;;;;;;;12.00;10.60;;;;;;;9.84;78.60;98937.95;106154;1251;72646;-79
2023/04/12 01:16:50;;;;;;;12.80;10.50;;;;;;;9.78;79.17;98939.55;106054;1257;60428;-77
2023/04/12 01:19:28;;;;;;;10.90;8.90;;;;;;;9.75;79.45;98936.61;106620;1258;60426;-79
2023/04/12 01:22:01;;;;;;;11.60;9.10;;;;;;;9.81;79.88;98934.94;106771;1251;74174;-76
2023/04/12 01:24:54;;;;;;;12.20;10.30;;;;;;;9.80;79.83;98930.35;106641;1251;71452;-80
2023/04/12 01:27:27;;;;;;;13.80;11.50;;;;;;;9.70;80.46;98929.42;106296;1254;73594;-78
2023/04/12 01:29:55;;;;;;;13.80;10.30;;;;;;;9.61;81.09;98926.97;106861;1256;60445;-79
2023/04/12 01:32:25;;;;;;;13.20;9.60;;;;;;;9.54;81.74;98918.80;107565;1251;61136;-81
2023/04/12 01:34:52;;;;;;;12.20;9.80;;;;;;;9.56;81.46;98915.15;108594;1254;73745;-81
2023/04/12 01:37:20;;;;;;;14.10;10.70;;;;;;;9.57;82.15;98911.10;107944;1254;71041;-83
2023/04/12 01:39:48;;;;;;;21.10;13.20;;;;;;;9.51;83.51;98912.52;107918;1251;72669;-82
2023/04/12 01:42:19;;;;;;;21.10;16.20;;;;;;;9.43;84.30;98909.45;107640;1251;61433;-82
2023/04/12 01:44:46;;;;;;;21.90;15.80;;;;;;;9.36;85.46;98910.25;106800;1256;60348;-87
2023/04/12 01:47:13;;;;;;;20.80;15.40;;;;;;;9.39;85.51;98904.59;108538;1253;73875;-87
2023/04/12 01:49:49;;;;;;;23.70;17.70;;;;;;;9.44;85.95;98902.45;108163;1259;71528;-82
2023/04/12 01:52:19;;;;;;;19.10;15.70;;;;;;;9.41;87.02;98901.03;108511;1254;72579;-83
2023/04/12 01:54:49;;;;;;;24.00;16.90;;;;;;;9.42;86.74;98891.83;108514;1254;61859;-82
2023/04/12 01:57:19;;;;;;;23.30;18.00;;;;;;;9.49;86.82;98888.38;107900;1251;60558;-83
2023/04/12 01:59:47;;;;;;;19.30;15.80;;;;;;;9.51;87.02;98886.58;108181;1253;72323;-83
2023/04/12 02:02:22;;;;;;;17.60;15.00;;;;;;;9.53;87.39;98887.02;108642;1251;71508;-85
2023/04/12 02:04:50;;;;;;;23.00;15.80;;;;;;;9.55;87.70;98885.86;106871;1251;72291;-83
2023/04/12 02:07:20;;;;;;;17.90;13.90;;;;;;;9.60;88.04;98879.60;108017;1258;60483;-81
2023/04/12 02:09:51;;;;;;;16.00;12.80;;;;;;;9.63;88.49;98877.19;109289;1251;59049;-77
2023/04/12 02:12:21;;;;;;;16.70;11.50;;;;;;;9.66;88.90;98873.89;109043;1251;71840;-78
2023/04/12 02:14:51;;;;;;;16.20;10.80;;;;;;;9.64;88.82;98869.46;109269;1251;69928;-77
2023/04/12 02:17:24;;;;;;;13.60;11.80;;;;;;;9.64;89.29;98868.89;109060;1251;72544;-79
2023/04/12 02:19:52;;;;;;;13.00;11.60;;;;;;;9.67;89.35;98868.98;108340;1251;60363;-76
2023/04/12 02:22:18;;;;;;;12.10;10.70;;;;;;;9.64;89.52;98861.67;108216;1254;59484;-76
2023/04/12 02:24:46;;;;;;;12.90;10.20;;;;;;;9.69;90.44;98860.95;108538;1252;73936;-79
2023/04/12 02:27:13;;;;;;;12.50;10.40;;;;;;;9.70;91.01;98863.95;109189;1254;70022;-82
2023/04/12 02:29:41;;;;;;;12.00;10.50;;;;;;;9.71;90.86;98861.25;108824;1251;72707;-80
2023/04/12 02:32:08;;;;;;;13.50;10.80;;;;;;;9.71;91.39;98863.38;106801;1252;60549;-80
2023/04/12 02:34:37;;;;;;;13.30;10.40;;;;;;;9.69;92.04;98857.36;106261;1252;60507;-77
2023/04/12 02:37:16;;;;;;;13.20;10.10;;;;;;;9.70;91.83;98859.73;106294;1252;72883;-79
2023/04/12 02:39:43;;;;;;;12.60;9.60;;;;;;;9.66;91.96;98851.55;106312;1257;70963;-76
2023/04/12 02:42:10;;;;;;;14.70;11.10;;;;;;;9.64;92.23;98853.05;106080;1254;73398;-76
2023/04/12 02:44:38;;;;;;;15.80;10.30;;;;;;;9.61;92.13;98848.48;106003;1257;60671;-77
2023/04/12 02:47:13;;;;;;;13.60;9.60;;;;;;;9.57;92.21;98847.90;106218;1258;61444;-80
2023/04/12 02:49:42;;;;;;;12.20;10.20;;;;;;;9.54;92.13;98841.00;106029;1253;74650;-80
2023/04/12 02:52:10;;;;;;;13.90;9.80;;;;;;;9.51;92.40;98838.47;106038;1257;70718;-77
2023/04/12 02:54:49;;;;;;;12.40;10.10;;;;;;;9.50;92.55;98838.78;106137;1251;72693;-79
2023/04/12 02:57:17;;;;;;;13.50;9.90;;;;;;;9.47;92.32;98834.95;106133;1254;60485;-79
2023/04/12 02:59:47;;;;;;;13.20;9.70;;;;;;;9.43;92.80;98837.48;105881;1258;61317;-80
2023/04/12 03:02:27;;;;;;;12.40;10.10;;;;;;;9.41;93.57;98833.45;105991;1256;72714;-77
2023/04/12 03:04:58;;;;;;;12.90;10.00;;;;;;;9.43;93.33;98833.44;105982;1251;71071;-75
2023/04/12 03:07:34;;;;;;;13.30;10.20;;;;;;;9.42;92.78;98832.84;106057;1254;72536;-80
2023/04/12 03:10:05;;;;;;;11.90;10.10;;;;;;;9.42;92.86;98831.75;106251;1254;61585;-76
2023/04/12 03:12:33;;;;;;;13.40;10.30;;;;;;;9.38;93.23;98831.73;106471;1251;61228;-78
2023/04/12 03:15:14;;;;;;;12.40;11.10;;;;;;;9.35;93.51;98825.16;107026;1253;74054;-84
2023/04/12 03:17:45;;;;;;;13.10;11.20;;;;;;;9.37;94.31;98824.98;106488;1254;70903;-76
2023/04/12 03:20:12;;;;;;;15.30;12.10;;;;;;;9.40;93.85;98825.14;105994;1251;72193;-75
2023/04/12 03:22:45;;;;;;;;;;;;;;;9.39;94.53;98824.66;106016;1253;60907;-77
2023/04/12 03:25:12;;;;;;;15.20;12.80;;;;;;;9.40;94.97;98822.83;106468;1255;60919;-74
2023/04/12 03:27:45;;;;;;;16.60;12.70;;;;;;;9.41;95.26;98820.47;106627;1254;74849;-77
2023/04/12 03:30:14;;;;;;;14.80;12.60;;;;;;;9.37;95.77;98819.82;106876;1254;69568;-74
2023/04/12 03:32:43;;;;;;;17.40;13.00;;;;;;;9.39;96.18;98814.80;106853;1253;72322;-76
2023/04/12 03:35:10;;;;;;;16.40;12.10;;;;;;;9.41;96.26;98811.88;106909;1252;61420;-76
2023/04/12 03:37:40;;;;;;;16.50;11.70;;;;;;;9.40;96.28;98806.16;107309;1253;60505;-75
2023/04/12 03:40:09;;;;;;;14.20;11.60;;;;;;;9.40;96.62;98810.67;107404;1253;74872;-77
2023/04/12 03:42:37;;;;;;;15.30;11.60;;;;;;;9.40;96.29;98807.98;107399;1251;70641;-72
2023/04/12 03:45:11;;;;;;;13.50;10.60;;;;;;;9.39;96.39;98803.82;108439;1251;73566;-76
2023/04/12 03:47:42;;;;;;;12.40;10.10;;;;;;;9.41;96.80;98803.44;109085;1256;59935;-75
2023/04/12 03:50:09;;;;;;;13.20;10.70;;;;;;;9.41;96.87;98804.09;107757;1251;61097;-76
2023/04/12 03:52:45;;;;;;;13.20;10.40;;;;;;;9.39;96.14;98806.46;107856;1253;74832;-76
2023/04/12 03:55:17;;;;;;;12.30;9.70;;;;;;;9.36;96.60;98804.05;107886;1254;70254;-76
2023/04/12 03:57:44;;;;;;;13.10;9.90;;;;;;;9.33;97.27;98802.63;107823;1253;71456;-77
2023/04/12 04:00:12;;;;;;;11.50;10.10;;;;;;;9.31;97.61;98801.63;107929;1251;61137;-77
2023/04/12 04:03:09;;;;;;;14.20;10.40;;;;;;;9.30;98.42;98801.93;107446;1251;60462;-78
2023/04/12 04:05:55;;;;;;;13.90;10.30;;;;;;;9.31;98.91;98801.42;107145;1256;73507;-77
2023/04/12 04:08:23;;;;;;;11.60;10.30;;;;;;;9.29;99.21;98799.60;106887;1251;69227;-77
2023/04/12 04:10:51;;;;;;;12.30;10.40;;;;;;;9.25;99.25;98800.20;106827;1257;73678;-77
2023/04/12 04:13:32;;;;;;;12.80;10.20;;;;;;;9.23;99.36;98796.58;106503;1251;61238;-77
2023/04/12 04:16:03;;;;;;;12.10;10.40;;;;;;;9.23;99.92;98795.61;106644;1254;61197;-78
2023/04/12 04:18:31;;;;;;;12.50;9.30;;;;;;;9.23;99.64;98798.34;106502;1254;74010;-76
2023/04/12 04:20:58;;;;;;;13.20;10.20;;;;;;;9.20;99.50;98798.46;106599;1257;70599;-75
2023/04/12 04:23:27;;;;;;;12.30;10.00;;;;;;;9.16;99.43;98795.85;106272;1253;71648;-73
2023/04/12 04:25:55;;;;;;;13.70;10.10;;;;;;;9.12;99.50;98797.32;106496;1254;60332;-75
2023/04/12 04:28:24;;;;;;;12.60;10.10;;;;;;;9.11;99.88;98794.81;107045;1253;60531;-76
2023/04/12 04:30:54;;;;;;;12.80;9.90;;;;;;;9.09;99.72;98793.52;106935;1251;73808;-78
2023/04/12 04:33:22;;;;;;;13.70;9.50;;;;;;;9.09;99.93;98796.54;106938;1251;70714;-78
2023/04/12 04:35:51;;;;;;;13.00;10.50;;;;;;;9.08;99.94;98796.64;106959;1251;72398;-78
2023/04/12 04:38:26;;;;;;;12.50;10.60;;;;;;;9.10;100.00;98799.55;107094;1254;60941;-78
2023/04/12 04:41:01;;;;;;;15.00;10.10;;;;;;;9.07;100.00;98802.41;107384;1257;60370;-79
2023/04/12 04:43:38;;;;;;;10.50;9.30;;;;;;;9.08;100.00;98800.80;108293;1256;75044;-79
2023/04/12 04:46:09;;;;;;;12.90;10.00;;;;;;;9.11;100.00;98798.23;108692;1251;71106;-78
2023/04/12 04:48:39;;;;;;;12.10;9.60;;;;;;;9.13;100.00;98797.61;108535;1251;72459;-81
2023/04/12 04:51:10;;;;;;;11.50;9.70;;;;;;;9.16;100.00;98799.50;108370;1251;60323;-80
2023/04/12 04:53:39;;;;;;;12.70;9.20;;;;;;;9.21;100.00;98795.11;108546;1251;61185;-79
2023/04/12 04:56:08;;;;;;;9.90;8.80;;;;;;;9.21;100.00;98794.45;108519;1254;73699;-79
2023/04/12 04:58:40;;;;;;;11.90;9.40;;;;;;;9.28;100.00;98792.68;107688;1251;380469;-80
2023/04/12 05:02:56;;;;;;;12.30;8.80;;;;;;;9.36;100.00;98789.54;105664;1283;600933;-75
2023/04/12 05:05:29;;;;;;;10.90;9.20;;;;;;;9.37;100.00;98791.71;107514;1267;62069;-76
2023/04/12 05:08:04;;;;;;;12.50;9.00;;;;;;;9.40;100.00;98792.57;107941;1265;58271;-76
2023/04/12 05:10:38;;;;;;;10.10;8.00;;;;;;;9.42;100.00;98790.76;107894;1263;72115;-74
2023/04/12 05:13:05;;;;;;;11.80;8.80;;;;;;;9.47;100.00;98789.14;107977;1263;69825;-76
2023/04/12 05:15:33;;;;;;;10.50;9.10;;;;;;;9.49;100.00;98787.29;107816;1260;177511;-76
2023/04/12 05:18:07;;;;;;;11.20;8.60;;;;;;;9.48;100.00;98784.96;107956;1259;61994;-75
2023/04/12 05:20:37;;;;;;;12.30;8.10;;;;;;;9.51;100.00;98785.45;108578;1253;60230;-75
2023/04/12 05:23:05;;;;;;;10.50;7.80;;;;;;;9.56;100.00;98784.48;108559;1254;73424;-75
2023/04/12 05:25:33;;;;;;;9.60;7.90;;;;;;;9.59;100.00;98783.23;108904;1254;70031;-75
2023/04/12 05:28:12;;;;;;;11.80;8.10;;;;;;;9.62;100.00;98784.81;108693;1253;72554;-76
2023/04/12 05:30:42;;;;;;;7.50;6.50;;;;;;;9.61;100.00;98781.25;108604;1252;59138;-73
2023/04/12 05:33:11;;;;;;;11.60;7.60;;;;;;;9.60;100.00;98782.25;107777;1252;60672;-76
2023/04/12 05:35:44;;;;;;;10.20;8.10;;;;;;;9.58;100.00;98779.30;107658;1253;73054;-79
2023/04/12 05:38:11;;;;;;;9.00;7.10;;;;;;;9.59;100.00;98777.02;107498;1254;70421;-75
2023/04/12 05:40:40;;;;;;;8.20;7.40;;;;;;;9.56;100.00;98774.41;107897;1254;72661;-73
2023/04/12 05:43:11;;;;;;;12.50;8.40;;;;;;;9.56;100.00;98770.38;108121;1253;59561;-75
2023/04/12 05:45:40;;;;;;;10.00;7.00;;;;;;;9.55;100.00;98769.02;107770;1254;61785;-75
2023/04/12 05:48:08;;;;;;;8.60;7.50;;;;;;;9.50;100.00;98764.59;108236;1254;72847;-75
2023/04/12 05:50:35;;;;;;;9.70;7.60;;;;;;;9.47;100.00;98764.60;108137;1253;69411;-75
2023/04/12 05:53:02;;;;;;;9.40;7.10;;;;;;;9.47;100.00;98762.48;107802;1253;72423;-74
2023/04/12 05:55:31;;;;;;;10.50;6.80;;;;;;;9.47;100.00;98762.07;106594;1254;61196;-76
2023/04/12 05:57:58;;;;;;;9.10;7.00;;;;;;;9.51;100.00;98758.64;106144;1252;61187;-75
2023/04/12 06:00:26;;;;;;;7.20;6.20;;;;;;;9.54;100.00;98755.92;106437;1257;74264;-78
2023/04/12 06:02:53;;;;;;;9.10;6.80;;;;;;;9.54;100.00;98755.73;106974;1254;69786;-78
2023/04/12 06:05:21;;;;;;;10.60;6.40;;;;;;;9.52;100.00;98758.33;106536;1254;72710;-80
2023/04/12 06:07:49;;;;;;;7.20;6.10;;;;;;;9.50;100.00;98754.27;106650;1254;61158;-76
2023/04/12 06:10:16;;;;;;;10.20;6.20;;;;;;;9.53;100.00;98754.07;106635;1258;60182;-76
2023/04/12 06:12:47;;;;;;;7.10;6.00;;;;;;;9.58;100.00;98751.27;106863;1254;73971;-78
2023/04/12 06:15:15;;;;;;;8.50;7.10;;;;;;;9.58;100.00;98755.27;106641;1254;69425;-78
2023/04/12 06:17:42;;;;;;;9.40;5.60;;;;;;;9.53;100.00;98751.30;106399;1256;72677;-78
2023/04/12 06:20:13;;;;;;;6.50;5.80;;;;;;;9.46;100.00;98749.65;106629;1254;59730;-77
2023/04/12 06:22:40;;;;;;;6.40;5.60;;;;;;;9.42;100.00;98744.50;106412;1254;61383;-79
2023/04/12 06:25:08;;;;;;;6.80;5.10;;;;;;;9.40;100.00;98745.02;106365;1254;73413;-81
2023/04/12 06:27:35;;;;;;;6.20;5.40;;;;;;;9.40;100.00;98739.80;106389;1252;68681;-78
2023/04/12 06:30:02;;;;;;;6.30;5.60;;;;;;;9.41;100.00;98741.55;106264;1254;72639;-78
2023/04/12 06:32:33;;;;;;;6.00;5.10;;;;;;;9.41;100.00;98736.30;106198;1253;62352;-76
2023/04/12 06:35:05;;;;;;;6.60;5.70;;;;;;;9.36;100.00;98737.05;106286;1252;61793;-78
2023/04/12 06:37:32;;;;;;;6.20;5.60;;;;;;;9.33;100.00;98735.50;106308;1254;72790;-79
2023/04/12 06:39:58;;;;;;;6.90;5.40;;;;;;;9.33;100.00;98735.17;105970;1254;71001;-80
2023/04/12 06:42:25;;;;;;;6.20;4.90;;;;;;;9.35;100.00;98734.71;105969;1253;72426;-79
2023/04/12 06:44:54;;;;;;;5.10;4.60;;;;;;;9.37;100.00;98735.39;106072;1253;60786;-78
2023/04/12 06:47:24;;;;;;;6.90;5.30;;;;;;;9.36;100.00;98730.70;106065;1254;60759;-80
2023/04/12 06:49:54;;;;;;;6.60;5.20;;;;;;;9.35;100.00;98729.45;105957;1254;72872;-80
2023/04/12 06:52:25;;;;;;;6.30;5.50;;;;;;;9.37;100.00;98730.83;105908;1254;69767;-80
2023/04/12 06:54:53;;;;;;;6.30;5.40;;;;;;;9.37;100.00;98731.35;105923;1254;71844;-79
2023/04/12 06:57:20;;;;;;;7.00;5.70;;;;;;;9.41;100.00;98734.10;105974;1254;60315;-79
2023/04/12 06:59:47;;;;;;;6.20;5.60;;;;;;;9.41;100.00;98732.23;106280;1253;60217;-80
2023/04/12 07:02:15;;;;;;;5.80;5.20;;;;;;;9.40;100.00;98729.19;106207;1253;73886;-78
2023/04/12 07:04:42;;;;;;;6.20;5.20;;;;;;;9.40;100.00;98728.25;106277;1254;70147;-78
2023/04/12 07:07:09;;;;;;;6.30;4.90;;;;;;;9.39;100.00;98725.55;105895;1253;72801;-78
2023/04/12 07:09:37;;;;;;;6.70;5.80;;;;;;;9.36;100.00;98724.58;106079;1254;63132;-77
2023/04/12 07:12:04;;;;;;;7.00;5.30;;;;;;;9.36;100.00;98722.09;106137;1253;60060;-77
2023/04/12 07:14:33;;;;;;;7.60;5.90;;;;;;;9.37;100.00;98724.20;106034;1256;74117;-78
2023/04/12 07:17:00;;;;;;;7.30;5.70;;;;;;;9.36;100.00;98723.81;106098;1254;70481;-81
2023/04/12 07:19:30;;;;;;;7.80;5.60;;;;;;;9.39;100.00;98719.71;106059;1252;73650;-79
2023/04/12 07:21:58;;;;;;;7.50;5.00;;;;;;;9.40;100.00;98717.65;106016;1254;61391;-79
2023/04/12 07:24:24;;;;;;;7.20;5.50;;;;;;;9.41;100.00;98717.94;106044;1255;61205;-79
2023/04/12 07:26:53;;;;;;;6.00;5.40;;;;;;;9.46;100.00;98715.39;105918;1254;73580;-79
2023/04/12 07:29:20;;;;;;;7.20;5.30;;;;;;;9.50;100.00;98717.38;105946;1254;71365;-80
2023/04/12 07:31:47;;;;;;;7.70;5.80;;;;;;;9.49;100.00;98708.66;106076;1256;72527;-79
2023/04/12 07:34:14;;;;;;;6.50;4.70;;;;;;;9.49;100.00;98711.27;106225;1254;60548;-76
2023/04/12 07:36:43;;;;;;;5.30;4.70;;;;;;;9.47;100.00;98707.45;106170;1254;61003;-77
2023/04/12 07:39:11;;;;;;;5.20;4.20;;;;;;;9.48;100.00;98711.58;106530;1256;73984;-79
2023/04/12 07:41:39;;;;;;;6.90;5.00;;;;;;;9.51;100.00;98709.17;106758;1257;71538;-79
2023/04/12 07:44:07;;;;;;;7.00;4.40;;;;;;;9.56;100.00;98707.92;106616;1253;73867;-80
2023/04/12 07:46:34;;;;;;;6.40;4.80;;;;;;;9.59;100.00;98706.33;106564;1254;60354;-79
2023/04/12 07:49:01;;;;;;;6.00;5.00;;;;;;;9.60;100.00;98711.16;106190;1256;59832;-81
2023/04/12 07:51:28;;;;;;;7.00;4.70;;;;;;;9.62;100.00;98710.61;106630;1256;73656;-81
2023/04/12 07:53:58;;;;;;;5.20;4.60;;;;;;;9.65;100.00;98712.88;106139;1253;71303;-79
2023/04/12 07:56:26;;;;;;;7.00;4.90;;;;;;;9.69;100.00;98712.56;106174;1254;73830;-79
2023/04/12 07:58:53;;;;;;;6.40;4.40;;;;;;;9.70;100.00;98716.36;106522;1253;63457;-81
2023/04/12 08:01:21;;;;;;;5.70;4.20;;;;;;;9.73;100.00;98717.65;106473;1252;61220;-79
2023/04/12 08:03:50;;;;;;;5.00;4.30;;;;;;;9.74;100.00;98717.96;106074;1254;73139;-81
2023/04/12 08:06:17;;;;;;;4.70;4.20;;;;;;;9.74;100.00;98717.59;106307;1253;69181;-81
2023/04/12 08:08:44;;;;;;;4.90;4.10;;;;;;;9.73;100.00;98717.73;106323;1254;73612;-81
2023/04/12 08:11:12;;;;;;;6.80;4.00;;;;;;;9.72;100.00;98716.30;106180;1259;63034;-81
2023/04/12 08:13:38;;;;;;;6.60;4.20;;;;;;;9.71;100.00;98713.20;105970;1253;60281;-81
2023/04/12 08:16:08;;;;;;;5.00;4.00;;;;;;;9.75;100.00;98714.37;105901;1254;73010;-80
2023/04/12 08:18:35;;;;;;;4.60;4.00;;;;;;;9.79;100.00;98711.00;106139;1254;70538;-81
2023/04/12 08:21:04;;;;;;;7.60;4.20;;;;;;;9.82;100.00;98707.83;106089;1254;72744;-81
2023/04/12 08:23:38;;;;;;;6.00;4.30;;;;;;;9.83;100.00;98704.96;106090;1252;61457;-83
2023/04/12 08:26:06;;;;;;;5.20;4.40;;;;;;;9.82;100.00;98703.21;106087;1254;59567;-82
2023/04/12 08:28:33;;;;;;;5.50;4.20;;;;;;;9.83;100.00;98701.81;105967;1259;72477;-83
2023/04/12 08:31:01;;;;;;;5.40;4.20;;;;;;;9.89;100.00;98702.06;106587;1253;71759;-81
2023/04/12 08:33:28;;;;;;;6.00;4.50;;;;;;;9.94;100.00;98701.69;106506;1253;71525;-80
2023/04/12 08:35:56;;;;;;;5.30;4.80;;;;;;;10.02;100.00;98702.85;106256;1255;60061;-80
2023/04/12 08:38:24;;;;;;;6.70;4.30;;;;;;;10.02;100.00;98700.86;106512;1257;61411;-81
2023/04/12 08:41:11;;;;;;;4.60;4.00;;;;;;;10.01;100.00;98698.96;106328;1256;73272;-78
2023/04/12 08:43:41;;;;;;;5.40;4.20;;;;;;;9.99;100.00;98693.80;106257;1254;70864;-80
2023/04/12 08:46:08;;;;;;;8.20;4.60;;;;;;;10.02;100.00;98694.89;106463;1255;71103;-81
2023/04/12 08:48:36;;;;;;;5.90;4.20;;;;;;;10.06;100.00;98689.08;106496;1252;63171;-81
2023/04/12 08:51:04;;;;;;;5.20;4.30;;;;;;;10.11;100.00;98689.17;106609;1254;61333;-83
2023/04/12 08:53:32;;;;;;;5.50;4.70;;;;;;;10.15;100.00;98681.48;107218;1256;72905;-81
2023/04/12 08:56:10;;;;;;;5.20;4.30;;;;;;;10.21;100.00;98681.54;106169;1256;68488;-80
2023/04/12 08:58:39;;;;;;;4.50;4.10;;;;;;;10.23;100.00;98677.45;106155;1254;72651;-78
2023/04/12 09:01:12;;;;;;;5.50;4.40;;;;;;;10.28;100.00;98678.29;107244;1253;61103;-80
2023/04/12 09:03:43;;;;;;;5.60;4.20;;;;;;;10.29;100.00;98675.45;107403;1253;61329;-81
2023/04/12 09:06:12;;;;;;;5.40;4.30;;;;;;;10.29;100.00;98673.20;107984;1253;72150;-82
2023/04/12 09:08:52;;;;;;;5.00;4.50;;;;;;;10.24;100.00;98668.41;107013;1255;70263;-81
2023/04/12 09:11:29;;;;;;;5.50;4.80;;;;;;;10.25;100.00;98669.06;107186;1254;73546;-80
2023/04/12 09:13:58;;;;;;;7.80;4.60;;;;;;;10.27;100.00;98668.98;106824;1254;61570;-79
2023/04/12 09:16:39;;;;;;;6.50;4.50;;;;;;;10.30;100.00;98664.80;106553;1254;60339;-82
2023/04/12 09:19:11;;;;;;;5.20;4.30;;;;;;;10.33;100.00;98665.13;106253;1256;74084;-83
2023/04/12 09:21:51;;;;;;;5.10;4.10;;;;;;;10.36;100.00;98665.27;105799;1254;69514;-82
2023/04/12 09:24:18;;;;;;;5.20;4.60;;;;;;;10.36;100.00;98662.98;106049;1254;73528;-81
2023/04/12 09:26:45;;;;;;;5.00;4.50;;;;;;;10.32;100.00;98658.54;106117;1253;62135;-81
2023/04/12 09:29:21;;;;;;;4.90;4.00;;;;;;;10.33;100.00;98662.27;106010;1256;61590;-82
2023/04/12 09:32:02;;;;;;;5.40;4.40;;;;;;;10.35;100.00;98656.28;106389;1256;74938;-79
2023/04/12 09:34:30;;;;;;;6.70;4.40;;;;;;;10.41;100.00;98656.48;106040;1259;71054;-80
2023/04/12 09:36:57;;;;;;;4.70;4.00;;;;;;;10.45;100.00;98654.14;106027;1254;73696;-82
2023/04/12 09:39:33;;;;;;;5.10;4.60;;;;;;;10.47;100.00;98652.20;106057;1253;62326;-82
2023/04/12 09:42:08;;;;;;;5.40;4.50;;;;;;;10.47;100.00;98652.68;106117;1254;61578;-80
2023/04/12 09:44:53;;;;;;;6.40;4.70;;;;;;;10.46;100.00;98650.02;106630;1254;74689;-81
2023/04/12 09:47:20;;;;;;;6.40;4.20;;;;;;;10.46;100.00;98651.73;106711;1254;70260;-81
2023/04/12 09:49:47;;;;;;;5.30;4.60;;;;;;;10.48;100.00;98654.03;107180;1253;72767;-77
2023/04/12 09:52:15;;;;;;;4.60;4.20;;;;;;;10.50;100.00;98654.91;106577;1254;60434;-78
2023/04/12 09:54:44;;;;;;;4.80;4.10;;;;;;;10.46;100.00;98651.61;106444;1253;60517;-79
2023/04/12 09:57:11;;;;;;;6.30;4.20;;;;;;;10.43;100.00;98650.49;106591;1254;74707;-80
2023/04/12 09:59:40;;;;;;;5.00;4.20;;;;;;;10.38;100.00;98647.92;107330;1254;70297;-80
2023/04/12 10:02:21;;;;;;;4.80;4.30;;;;;;;10.38;100.00;98649.44;107491;1254;71741;-80
2023/04/12 10:04:49;;;;;;;6.30;4.20;;;;;;;10.39;100.00;98646.45;107079;1253;60601;-81
2023/04/12 10:07:16;;;;;;;5.10;4.10;;;;;;;10.37;100.00;98640.04;106337;1256;60520;-80
2023/04/12 10:09:43;;;;;;;6.20;4.70;;;;;;;10.37;100.00;98640.16;106338;1253;73984;-79
2023/04/12 10:12:10;;;;;;;7.30;4.40;;;;;;;10.43;100.00;98643.35;106497;1256;69246;-79
2023/04/12 10:14:37;;;;;;;5.90;4.50;;;;;;;10.48;100.00;98638.96;106273;1254;73077;-78
2023/04/12 10:17:07;;;;;;;5.00;4.30;;;;;;;10.53;100.00;98638.68;106090;1254;60505;-80
2023/04/12 10:19:35;;;;;;;5.50;4.70;;;;;;;10.59;100.00;98641.45;105829;1259;61566;-79
2023/04/12 10:22:02;;;;;;;7.30;4.90;;;;;;;10.65;100.00;98638.17;106074;1254;76976;-79
2023/04/12 10:24:30;;;;;;;6.60;4.50;;;;;;;10.66;100.00;98642.84;106539;1254;71482;-80
2023/04/12 10:27:01;;;;;;;4.40;4.00;;;;;;;10.62;100.00;98639.79;106869;1253;72904;-80
2023/04/12 10:29:33;;;;;;;5.90;4.50;;;;;;;10.57;100.00;98637.59;106785;1254;63030;-79
2023/04/12 10:32:23;;;;;;;5.50;4.40;;;;;;;10.57;100.00;98639.55;106575;1252;60390;-81
2023/04/12 10:34:55;;;;;;;6.50;4.50;;;;;;;10.60;100.00;98640.20;106380;1254;74876;-80
2023/04/12 10:37:54;;;;;;;5.50;4.90;;;;;;;10.63;100.00;98639.52;106004;1254;71229;-81
2023/04/12 10:40:21;;;;;;;4.50;4.00;;;;;;;10.67;100.00;98639.58;105930;1254;72827;-79
2023/04/12 10:42:48;;;;;;;6.00;4.70;;;;;;;10.67;100.00;98637.27;106264;1254;62694;-78
2023/04/12 10:45:34;;;;;;;7.40;4.70;;;;;;;10.63;100.00;98642.01;106230;1259;61041;-78
2023/04/12 10:48:02;;;;;;;5.10;4.50;;;;;;;10.62;100.00;98641.23;106331;1256;74740;-80
2023/04/12 10:50:30;;;;;;;5.70;4.00;;;;;;;10.62;100.00;98639.45;106182;1254;69706;-80
2023/04/12 10:53:19;;;;;;;5.30;4.50;;;;;;;10.62;100.00;98638.86;106148;1254;72658;-80
2023/04/12 10:55:47;;;;;;;7.30;5.50;;;;;;;10.61;100.00;98639.70;106567;1254;62946;-77
2023/04/12 10:58:48;;;;;;;7.20;4.50;;;;;;;10.61;100.00;98639.46;106044;1254;60414;-77
2023/04/12 11:01:18;;;;;;;7.90;6.10;;;;;;;10.61;100.00;98641.22;106212;1256;74856;-80
2023/04/12 11:04:08;;;;;;;5.10;4.50;;;;;;;10.62;100.00;98636.84;106739;1252;71101;-78
2023/04/12 11:06:39;;;;;;;5.60;4.60;;;;;;;10.60;100.00;98636.51;106180;1254;72448;-79
2023/04/12 11:09:27;;;;;;;5.90;4.70;;;;;;;10.56;100.00;98637.50;105991;1252;62273;-80
2023/04/12 11:12:10;;;;;;;6.20;5.20;;;;;;;10.53;100.00;98634.55;106173;1253;60428;-80
2023/04/12 11:14:48;;;;;;;9.20;4.70;;;;;;;10.53;100.00;98631.29;106142;1253;75018;-80
2023/04/12 11:17:20;;;;;;;6.00;4.50;;;;;;;10.54;100.00;98630.09;106193;1254;69753;-80
2023/04/12 11:19:52;;;;;;;4.40;4.00;;;;;;;10.53;100.00;98635.53;106185;1254;73165;-81
2023/04/12 11:22:23;;;;;;;5.80;4.50;;;;;;;10.50;100.00;98629.45;105976;1256;61753;-77
2023/04/12 11:25:00;;;;;;;6.50;3.80;;;;;;;10.48;100.00;98631.95;106156;1257;60466;-79
2023/04/12 11:27:28;;;;;;;3.90;3.50;;;;;;;10.48;100.00;98631.56;106123;1256;74470;-79
2023/04/12 11:29:59;;;;;;;6.00;4.60;;;;;;;10.48;100.00;98629.61;106076;1254;70376;-78
2023/04/12 11:32:28;;;;;;;5.30;3.90;;;;;;;10.48;100.00;98630.15;106199;1253;71514;-80
2023/04/12 11:34:56;;;;;;;5.10;4.30;;;;;;;10.50;100.00;98629.84;106323;1254;62513;-80
2023/04/12 11:37:25;;;;;;;5.80;4.20;;;;;;;10.55;100.00;98625.65;106341;1254;60519;-77